Nebo, North Carolina
Current Conditions -  °F | °C
As of 12:55 AM on Sunday 23 Nov 2014 (Local Time) from KFQD Reporting Station
Overcast Overcast  
Wind Chill: 42°   Ceiling: 4800
Heat Index: 42°   Visibility: 10mi
Dew Point: 31°   Wind: 0mph
Humidity: 64%   Direction: NA
Pressure: 30.29"   Gusts: NA
Location:  35.67°N, 81.9°W
Report Text: KFQD 230555Z AUTO 00000KT 10SM SCT039 OVC048 06/M01 A3029 RMK AO2 T00571007 10083 20041 401201051
Loading
Personal Weather Stations






























Interactive Weather Map New forecast layout! Learn more

10-Day Weather Forecast

Advertisements
Track Severe Weather on mobile